sensor_id;sensor_type;location;lat;lon;timestamp;temperature;humidity
70068;DHT22;57425;51.616;6.680;2023-08-01T00:00:14;20.10;80.10
70068;DHT22;57425;51.616;6.680;2023-08-01T00:02:40;20.10;80.10
70068;DHT22;57425;51.616;6.680;2023-08-01T00:05:08;20.10;80.10
70068;DHT22;57425;51.616;6.680;2023-08-01T00:07:33;20.10;80.10
70068;DHT22;57425;51.616;6.680;2023-08-01T00:09:59;20.10;80.10
70068;DHT22;57425;51.616;6.680;2023-08-01T00:12:25;20.10;80.10
70068;DHT22;57425;51.616;6.680;2023-08-01T00:14:51;20.00;80.10
70068;DHT22;57425;51.616;6.680;2023-08-01T00:17:17;20.10;80.20
70068;DHT22;57425;51.616;6.680;2023-08-01T00:19:42;20.10;80.20
70068;DHT22;57425;51.616;6.680;2023-08-01T00:22:08;20.10;80.20
70068;DHT22;57425;51.616;6.680;2023-08-01T00:24:35;20.10;80.20
70068;DHT22;57425;51.616;6.680;2023-08-01T00:27:00;20.00;80.20
70068;DHT22;57425;51.616;6.680;2023-08-01T00:29:26;20.00;80.20
70068;DHT22;57425;51.616;6.680;2023-08-01T00:31:51;20.00;80.20
70068;DHT22;57425;51.616;6.680;2023-08-01T00:34:17;20.00;80.20
70068;DHT22;57425;51.616;6.680;2023-08-01T00:36:42;20.00;80.20
70068;DHT22;57425;51.616;6.680;2023-08-01T00:39:08;20.00;80.20
70068;DHT22;57425;51.616;6.680;2023-08-01T00:41:35;20.00;80.20
70068;DHT22;57425;51.616;6.680;2023-08-01T00:44:00;20.00;80.20
70068;DHT22;57425;51.616;6.680;2023-08-01T00:46:26;20.00;80.20
70068;DHT22;57425;51.616;6.680;2023-08-01T00:48:53;20.00;80.20
70068;DHT22;57425;51.616;6.680;2023-08-01T00:51:19;20.00;80.80
70068;DHT22;57425;51.616;6.680;2023-08-01T00:53:45;20.00;80.20
70068;DHT22;57425;51.616;6.680;2023-08-01T00:56:11;19.90;80.20
70068;DHT22;57425;51.616;6.680;2023-08-01T00:58:37;19.90;80.20
70068;DHT22;57425;51.616;6.680;2023-08-01T01:01:03;19.90;80.20
70068;DHT22;57425;51.616;6.680;2023-08-01T01:03:29;19.90;80.20
70068;DHT22;57425;51.616;6.680;2023-08-01T01:08:32;20.00;80.20
70068;DHT22;57425;51.616;6.680;2023-08-01T01:10:58;19.90;80.20
70068;DHT22;57425;51.616;6.680;2023-08-01T01:13:23;19.90;80.30
70068;DHT22;57425;51.616;6.680;2023-08-01T01:15:49;19.90;80.30
70068;DHT22;57425;51.616;6.680;2023-08-01T01:18:14;19.90;80.30
70068;DHT22;57425;51.616;6.680;2023-08-01T01:20:40;19.90;80.30
70068;DHT22;57425;51.616;6.680;2023-08-01T01:23:06;19.90;80.90
70068;DHT22;57425;51.616;6.680;2023-08-01T01:25:35;19.90;80.30
70068;DHT22;57425;51.616;6.680;2023-08-01T01:28:04;19.90;80.30
70068;DHT22;57425;51.616;6.680;2023-08-01T01:30:30;19.90;80.30
70068;DHT22;57425;51.616;6.680;2023-08-01T01:32:57;19.90;80.40
70068;DHT22;57425;51.616;6.680;2023-08-01T01:35:23;19.90;80.40
70068;DHT22;57425;51.616;6.680;2023-08-01T01:37:49;19.80;80.30
70068;DHT22;57425;51.616;6.680;2023-08-01T01:40:14;19.90;80.40
70068;DHT22;57425;51.616;6.680;2023-08-01T01:42:40;19.80;80.30
70068;DHT22;57425;51.616;6.680;2023-08-01T01:45:06;19.80;80.90
70068;DHT22;57425;51.616;6.680;2023-08-01T01:47:31;19.80;80.30
70068;DHT22;57425;51.616;6.680;2023-08-01T01:49:57;19.80;80.30
70068;DHT22;57425;51.616;6.680;2023-08-01T01:52:23;19.80;80.30
70068;DHT22;57425;51.616;6.680;2023-08-01T01:54:48;19.80;80.30
70068;DHT22;57425;51.616;6.680;2023-08-01T01:57:14;19.80;80.30
70068;DHT22;57425;51.616;6.680;2023-08-01T01:59:39;19.80;80.40
70068;DHT22;57425;51.616;6.680;2023-08-01T02:02:05;19.80;80.50
70068;DHT22;57425;51.616;6.680;2023-08-01T02:04:31;19.80;80.50
70068;DHT22;57425;51.616;6.680;2023-08-01T02:06:56;19.80;80.50
70068;DHT22;57425;51.616;6.680;2023-08-01T02:09:22;19.80;80.50
70068;DHT22;57425;51.616;6.680;2023-08-01T02:11:48;19.80;80.50
70068;DHT22;57425;51.616;6.680;2023-08-01T02:14:14;19.80;80.50
70068;DHT22;57425;51.616;6.680;2023-08-01T02:16:39;19.80;80.50
70068;DHT22;57425;51.616;6.680;2023-08-01T02:19:05;19.80;80.50
70068;DHT22;57425;51.616;6.680;2023-08-01T02:21:31;19.80;80.60
70068;DHT22;57425;51.616;6.680;2023-08-01T02:23:56;19.80;80.60
70068;DHT22;57425;51.616;6.680;2023-08-01T02:26:22;19.80;80.60
70068;DHT22;57425;51.616;6.680;2023-08-01T02:28:49;19.70;80.50
70068;DHT22;57425;51.616;6.680;2023-08-01T02:31:16;19.70;80.50
70068;DHT22;57425;51.616;6.680;2023-08-01T02:33:41;19.70;80.50
70068;DHT22;57425;51.616;6.680;2023-08-01T02:36:07;19.70;80.50
70068;DHT22;57425;51.616;6.680;2023-08-01T02:38:33;19.70;80.50
70068;DHT22;57425;51.616;6.680;2023-08-01T02:40:58;19.70;80.50
70068;DHT22;57425;51.616;6.680;2023-08-01T02:43:24;19.80;80.60
70068;DHT22;57425;51.616;6.680;2023-08-01T02:45:50;19.70;80.50
70068;DHT22;57425;51.616;6.680;2023-08-01T02:48:15;19.70;80.50
70068;DHT22;57425;51.616;6.680;2023-08-01T02:50:41;19.70;80.50
70068;DHT22;57425;51.616;6.680;2023-08-01T02:53:07;19.70;80.50
70068;DHT22;57425;51.616;6.680;2023-08-01T02:55:32;19.70;80.50
70068;DHT22;57425;51.616;6.680;2023-08-01T02:57:58;19.70;80.50
70068;DHT22;57425;51.616;6.680;2023-08-01T03:00:23;19.70;80.40
70068;DHT22;57425;51.616;6.680;2023-08-01T03:02:49;19.70;80.40
70068;DHT22;57425;51.616;6.680;2023-08-01T03:05:15;19.70;80.40
70068;DHT22;57425;51.616;6.680;2023-08-01T03:07:40;19.70;80.40
70068;DHT22;57425;51.616;6.680;2023-08-01T03:10:06;19.70;80.40
70068;DHT22;57425;51.616;6.680;2023-08-01T03:12:32;19.70;80.40
70068;DHT22;57425;51.616;6.680;2023-08-01T03:14:58;19.70;80.50
70068;DHT22;57425;51.616;6.680;2023-08-01T03:17:24;19.60;80.40
70068;DHT22;57425;51.616;6.680;2023-08-01T03:19:49;19.60;80.40
70068;DHT22;57425;51.616;6.680;2023-08-01T03:22:15;19.60;80.40
70068;DHT22;57425;51.616;6.680;2023-08-01T03:24:42;19.60;80.40
70068;DHT22;57425;51.616;6.680;2023-08-01T03:27:07;19.60;80.40
70068;DHT22;57425;51.616;6.680;2023-08-01T03:29:33;19.60;80.40
70068;DHT22;57425;51.616;6.680;2023-08-01T03:31:58;19.60;80.30
70068;DHT22;57425;51.616;6.680;2023-08-01T03:34:25;19.60;80.40
70068;DHT22;57425;51.616;6.680;2023-08-01T03:36:52;19.60;80.30
70068;DHT22;57425;51.616;6.680;2023-08-01T03:39:18;19.60;80.40
70068;DHT22;57425;51.616;6.680;2023-08-01T03:41:43;19.60;80.40
70068;DHT22;57425;51.616;6.680;2023-08-01T03:44:09;19.60;80.40
70068;DHT22;57425;51.616;6.680;2023-08-01T03:46:35;19.60;80.30
70068;DHT22;57425;51.616;6.680;2023-08-01T03:49:00;19.60;80.30
70068;DHT22;57425;51.616;6.680;2023-08-01T03:51:26;19.60;80.80
70068;DHT22;57425;51.616;6.680;2023-08-01T03:53:51;19.50;80.20
70068;DHT22;57425;51.616;6.680;2023-08-01T03:56:19;19.60;80.30
70068;DHT22;57425;51.616;6.680;2023-08-01T03:58:45;19.50;80.10
70068;DHT22;57425;51.616;6.680;2023-08-01T04:01:10;19.50;80.10
70068;DHT22;57425;51.616;6.680;2023-08-01T04:03:36;19.50;80.20
70068;DHT22;57425;51.616;6.680;2023-08-01T04:06:02;19.50;80.20
70068;DHT22;57425;51.616;6.680;2023-08-01T04:08:28;19.50;80.10
70068;DHT22;57425;51.616;6.680;2023-08-01T04:10:54;19.50;80.10
70068;DHT22;57425;51.616;6.680;2023-08-01T04:13:20;19.50;80.10
70068;DHT22;57425;51.616;6.680;2023-08-01T04:15:45;19.50;80.10
70068;DHT22;57425;51.616;6.680;2023-08-01T04:18:11;19.50;80.10
70068;DHT22;57425;51.616;6.680;2023-08-01T04:20:36;19.50;80.00
70068;DHT22;57425;51.616;6.680;2023-08-01T04:23:02;19.50;80.60
70068;DHT22;57425;51.616;6.680;2023-08-01T04:25:28;19.50;80.00
70068;DHT22;57425;51.616;6.680;2023-08-01T04:27:53;19.40;79.90
70068;DHT22;57425;51.616;6.680;2023-08-01T04:30:19;19.50;80.00
70068;DHT22;57425;51.616;6.680;2023-08-01T04:32:44;19.40;79.90
70068;DHT22;57425;51.616;6.680;2023-08-01T04:35:10;19.40;79.80
70068;DHT22;57425;51.616;6.680;2023-08-01T04:37:36;19.40;79.80
70068;DHT22;57425;51.616;6.680;2023-08-01T04:40:02;19.40;79.80
70068;DHT22;57425;51.616;6.680;2023-08-01T04:42:28;19.40;79.80
70068;DHT22;57425;51.616;6.680;2023-08-01T04:44:54;19.40;79.80
70068;DHT22;57425;51.616;6.680;2023-08-01T04:47:21;19.40;79.80
70068;DHT22;57425;51.616;6.680;2023-08-01T04:49:47;19.40;79.80
70068;DHT22;57425;51.616;6.680;2023-08-01T04:52:12;19.40;79.80
70068;DHT22;57425;51.616;6.680;2023-08-01T04:54:38;19.40;79.80
70068;DHT22;57425;51.616;6.680;2023-08-01T04:57:04;19.40;79.80
70068;DHT22;57425;51.616;6.680;2023-08-01T04:59:30;19.40;79.80
70068;DHT22;57425;51.616;6.680;2023-08-01T05:01:55;19.40;79.80
70068;DHT22;57425;51.616;6.680;2023-08-01T05:04:21;19.40;79.80
70068;DHT22;57425;51.616;6.680;2023-08-01T05:06:47;19.40;79.80
70068;DHT22;57425;51.616;6.680;2023-08-01T05:09:12;19.40;79.80
70068;DHT22;57425;51.616;6.680;2023-08-01T05:11:38;19.40;79.80
70068;DHT22;57425;51.616;6.680;2023-08-01T05:14:03;19.40;79.80
70068;DHT22;57425;51.616;6.680;2023-08-01T05:16:29;19.40;79.90
70068;DHT22;57425;51.616;6.680;2023-08-01T05:18:54;19.40;79.80
70068;DHT22;57425;51.616;6.680;2023-08-01T05:21:20;19.40;79.80
70068;DHT22;57425;51.616;6.680;2023-08-01T05:23:46;19.30;79.70
70068;DHT22;57425;51.616;6.680;2023-08-01T05:26:11;19.30;79.80
70068;DHT22;57425;51.616;6.680;2023-08-01T05:28:37;19.30;79.80
70068;DHT22;57425;51.616;6.680;2023-08-01T05:31:02;19.30;80.40
70068;DHT22;57425;51.616;6.680;2023-08-01T05:33:28;19.30;79.80
70068;DHT22;57425;51.616;6.680;2023-08-01T05:35:54;19.30;79.80
70068;DHT22;57425;51.616;6.680;2023-08-01T05:38:19;19.30;79.80
70068;DHT22;57425;51.616;6.680;2023-08-01T05:40:45;19.30;79.90
70068;DHT22;57425;51.616;6.680;2023-08-01T05:43:10;19.30;79.90
70068;DHT22;57425;51.616;6.680;2023-08-01T05:45:36;19.30;79.90
70068;DHT22;57425;51.616;6.680;2023-08-01T05:48:02;19.30;79.90
70068;DHT22;57425;51.616;6.680;2023-08-01T05:50:28;19.30;79.90
70068;DHT22;57425;51.616;6.680;2023-08-01T05:52:54;19.30;79.90
70068;DHT22;57425;51.616;6.680;2023-08-01T05:55:19;19.30;79.90
70068;DHT22;57425;51.616;6.680;2023-08-01T05:57:45;19.30;79.90
70068;DHT22;57425;51.616;6.680;2023-08-01T06:00:11;19.30;79.90
70068;DHT22;57425;51.616;6.680;2023-08-01T06:02:37;19.30;80.00
70068;DHT22;57425;51.616;6.680;2023-08-01T06:05:03;19.30;80.60
70068;DHT22;57425;51.616;6.680;2023-08-01T06:07:29;19.30;80.00
70068;DHT22;57425;51.616;6.680;2023-08-01T06:09:54;19.30;80.00
70068;DHT22;57425;51.616;6.680;2023-08-01T06:12:20;19.30;80.00
70068;DHT22;57425;51.616;6.680;2023-08-01T06:14:46;19.30;79.90
70068;DHT22;57425;51.616;6.680;2023-08-01T06:17:12;19.30;79.80
70068;DHT22;57425;51.616;6.680;2023-08-01T06:19:38;19.30;79.80
70068;DHT22;57425;51.616;6.680;2023-08-01T06:22:03;19.30;79.80
70068;DHT22;57425;51.616;6.680;2023-08-01T06:24:29;19.30;79.80
70068;DHT22;57425;51.616;6.680;2023-08-01T06:26:55;19.30;79.70
70068;DHT22;57425;51.616;6.680;2023-08-01T06:29:20;19.30;79.70
70068;DHT22;57425;51.616;6.680;2023-08-01T06:31:46;19.20;79.60
70068;DHT22;57425;51.616;6.680;2023-08-01T06:34:11;19.30;79.70
70068;DHT22;57425;51.616;6.680;2023-08-01T06:36:37;19.30;79.70
70068;DHT22;57425;51.616;6.680;2023-08-01T06:39:03;19.30;79.70
70068;DHT22;57425;51.616;6.680;2023-08-01T06:41:29;19.30;79.70
70068;DHT22;57425;51.616;6.680;2023-08-01T06:43:54;19.30;79.60
70068;DHT22;57425;51.616;6.680;2023-08-01T06:46:20;19.20;79.50
70068;DHT22;57425;51.616;6.680;2023-08-01T06:48:45;19.30;79.40
70068;DHT22;57425;51.616;6.680;2023-08-01T06:51:11;19.40;79.40
70068;DHT22;57425;51.616;6.680;2023-08-01T06:53:36;19.20;79.40
70068;DHT22;57425;51.616;6.680;2023-08-01T06:56:02;19.30;79.90
70068;DHT22;57425;51.616;6.680;2023-08-01T06:58:28;19.30;79.30
70068;DHT22;57425;51.616;6.680;2023-08-01T07:00:53;19.20;79.20
70068;DHT22;57425;51.616;6.680;2023-08-01T07:03:19;19.30;79.80
70068;DHT22;57425;51.616;6.680;2023-08-01T07:05:44;19.20;79.70
70068;DHT22;57425;51.616;6.680;2023-08-01T07:08:10;19.30;79.00
70068;DHT22;57425;51.616;6.680;2023-08-01T07:10:36;19.30;79.00
70068;DHT22;57425;51.616;6.680;2023-08-01T07:13:02;19.20;78.90
70068;DHT22;57425;51.616;6.680;2023-08-01T07:15:30;19.30;78.90
70068;DHT22;57425;51.616;6.680;2023-08-01T07:17:56;19.20;78.90
70068;DHT22;57425;51.616;6.680;2023-08-01T07:20:22;19.30;79.00
70068;DHT22;57425;51.616;6.680;2023-08-01T07:22:48;19.30;78.90
70068;DHT22;57425;51.616;6.680;2023-08-01T07:25:13;19.30;78.90
70068;DHT22;57425;51.616;6.680;2023-08-01T07:27:39;19.30;78.90
70068;DHT22;57425;51.616;6.680;2023-08-01T07:30:05;19.30;78.90
70068;DHT22;57425;51.616;6.680;2023-08-01T07:32:31;19.30;78.80
70068;DHT22;57425;51.616;6.680;2023-08-01T07:34:57;19.30;78.80
70068;DHT22;57425;51.616;6.680;2023-08-01T07:37:22;19.30;78.70
70068;DHT22;57425;51.616;6.680;2023-08-01T07:39:49;19.30;78.70
70068;DHT22;57425;51.616;6.680;2023-08-01T07:42:15;19.30;78.70
70068;DHT22;57425;51.616;6.680;2023-08-01T07:44:41;19.30;78.70
70068;DHT22;57425;51.616;6.680;2023-08-01T07:47:06;19.30;78.60
70068;DHT22;57425;51.616;6.680;2023-08-01T07:49:32;19.30;78.70
70068;DHT22;57425;51.616;6.680;2023-08-01T07:51:57;19.30;78.70
70068;DHT22;57425;51.616;6.680;2023-08-01T07:54:24;19.30;78.70
70068;DHT22;57425;51.616;6.680;2023-08-01T07:56:49;19.30;78.60
70068;DHT22;57425;51.616;6.680;2023-08-01T07:59:15;19.50;78.80
70068;DHT22;57425;51.616;6.680;2023-08-01T08:01:41;19.30;78.60
70068;DHT22;57425;51.616;6.680;2023-08-01T08:04:07;19.30;78.60
70068;DHT22;57425;51.616;6.680;2023-08-01T08:06:33;19.40;79.20
70068;DHT22;57425;51.616;6.680;2023-08-01T08:08:58;19.40;78.60
70068;DHT22;57425;51.616;6.680;2023-08-01T08:11:24;19.40;78.60
70068;DHT22;57425;51.616;6.680;2023-08-01T08:13:49;19.40;78.60
70068;DHT22;57425;51.616;6.680;2023-08-01T08:16:15;19.40;78.60
70068;DHT22;57425;51.616;6.680;2023-08-01T08:18:41;19.50;78.60
70068;DHT22;57425;51.616;6.680;2023-08-01T08:21:07;19.50;78.60
70068;DHT22;57425;51.616;6.680;2023-08-01T08:23:33;19.50;78.70
70068;DHT22;57425;51.616;6.680;2023-08-01T08:25:58;19.50;78.80
70068;DHT22;57425;51.616;6.680;2023-08-01T08:28:29;19.50;78.70
70068;DHT22;57425;51.616;6.680;2023-08-01T08:30:58;19.60;78.70
70068;DHT22;57425;51.616;6.680;2023-08-01T08:33:25;19.50;78.60
70068;DHT22;57425;51.616;6.680;2023-08-01T08:35:50;19.60;78.50
70068;DHT22;57425;51.616;6.680;2023-08-01T08:38:17;19.60;78.40
70068;DHT22;57425;51.616;6.680;2023-08-01T08:43:17;19.70;78.30
70068;DHT22;57425;51.616;6.680;2023-08-01T08:45:43;19.70;78.30
70068;DHT22;57425;51.616;6.680;2023-08-01T08:48:18;19.60;78.90
70068;DHT22;57425;51.616;6.680;2023-08-01T08:50:45;19.70;78.40
70068;DHT22;57425;51.616;6.680;2023-08-01T08:53:11;19.70;78.50
70068;DHT22;57425;51.616;6.680;2023-08-01T08:55:39;19.70;78.40
70068;DHT22;57425;51.616;6.680;2023-08-01T08:58:05;19.70;78.30
70068;DHT22;57425;51.616;6.680;2023-08-01T09:00:31;19.70;78.30
70068;DHT22;57425;51.616;6.680;2023-08-01T09:02:57;19.70;78.70
70068;DHT22;57425;51.616;6.680;2023-08-01T09:05:27;19.70;78.10
70068;DHT22;57425;51.616;6.680;2023-08-01T09:07:56;19.80;78.70
70068;DHT22;57425;51.616;6.680;2023-08-01T09:10:22;19.80;78.10
70068;DHT22;57425;51.616;6.680;2023-08-01T09:12:48;19.80;78.10
70068;DHT22;57425;51.616;6.680;2023-08-01T09:15:14;19.80;78.00
70068;DHT22;57425;51.616;6.680;2023-08-01T09:17:53;19.80;77.80
70068;DHT22;57425;51.616;6.680;2023-08-01T09:20:20;19.90;77.60
70068;DHT22;57425;51.616;6.680;2023-08-01T09:22:47;19.90;77.70
70068;DHT22;57425;51.616;6.680;2023-08-01T09:25:13;19.90;77.70
70068;DHT22;57425;51.616;6.680;2023-08-01T09:27:39;19.90;77.70
70068;DHT22;57425;51.616;6.680;2023-08-01T09:30:11;19.90;77.70
70068;DHT22;57425;51.616;6.680;2023-08-01T09:32:39;20.00;77.60
70068;DHT22;57425;51.616;6.680;2023-08-01T09:35:05;19.90;77.70
70068;DHT22;57425;51.616;6.680;2023-08-01T09:37:41;20.00;77.70
70068;DHT22;57425;51.616;6.680;2023-08-01T09:40:08;20.00;77.70
70068;DHT22;57425;51.616;6.680;2023-08-01T09:42:41;20.00;77.90
70068;DHT22;57425;51.616;6.680;2023-08-01T09:45:17;20.00;78.00
70068;DHT22;57425;51.616;6.680;2023-08-01T09:47:44;20.00;78.10
70068;DHT22;57425;51.616;6.680;2023-08-01T09:50:11;20.00;78.20
70068;DHT22;57425;51.616;6.680;2023-08-01T09:52:38;20.00;78.30
70068;DHT22;57425;51.616;6.680;2023-08-01T09:55:04;20.00;78.40
70068;DHT22;57425;51.616;6.680;2023-08-01T09:57:31;20.00;78.50
70068;DHT22;57425;51.616;6.680;2023-08-01T09:59:57;20.10;78.60
70068;DHT22;57425;51.616;6.680;2023-08-01T10:02:25;20.10;78.60
70068;DHT22;57425;51.616;6.680;2023-08-01T10:04:53;20.10;78.70
70068;DHT22;57425;51.616;6.680;2023-08-01T10:07:23;20.10;78.80
70068;DHT22;57425;51.616;6.680;2023-08-01T10:09:50;20.10;78.70
70068;DHT22;57425;51.616;6.680;2023-08-01T10:12:17;20.10;78.70
70068;DHT22;57425;51.616;6.680;2023-08-01T10:14:46;20.10;78.70
70068;DHT22;57425;51.616;6.680;2023-08-01T10:17:12;20.10;78.80
70068;DHT22;57425;51.616;6.680;2023-08-01T10:19:38;20.10;78.90
70068;DHT22;57425;51.616;6.680;2023-08-01T10:22:06;20.10;79.00
70068;DHT22;57425;51.616;6.680;2023-08-01T10:24:32;20.10;79.20
70068;DHT22;57425;51.616;6.680;2023-08-01T10:27:14;20.10;79.40
70068;DHT22;57425;51.616;6.680;2023-08-01T10:29:41;20.10;79.60
70068;DHT22;57425;51.616;6.680;2023-08-01T10:32:07;20.10;79.70
70068;DHT22;57425;51.616;6.680;2023-08-01T10:34:33;20.10;79.80
70068;DHT22;57425;51.616;6.680;2023-08-01T10:36:59;20.10;80.40
70068;DHT22;57425;51.616;6.680;2023-08-01T10:39:26;20.10;79.90
70068;DHT22;57425;51.616;6.680;2023-08-01T10:42:00;20.10;80.00
70068;DHT22;57425;51.616;6.680;2023-08-01T10:44:26;20.20;80.20
70068;DHT22;57425;51.616;6.680;2023-08-01T10:49:41;20.20;80.40
70068;DHT22;57425;51.616;6.680;2023-08-01T10:52:26;20.20;80.50
70068;DHT22;57425;51.616;6.680;2023-08-01T10:55:00;20.20;80.50
70068;DHT22;57425;51.616;6.680;2023-08-01T10:57:30;20.20;80.40
70068;DHT22;57425;51.616;6.680;2023-08-01T10:59:58;20.30;80.30
70068;DHT22;57425;51.616;6.680;2023-08-01T11:02:25;20.30;80.20
70068;DHT22;57425;51.616;6.680;2023-08-01T11:05:01;20.30;80.10
70068;DHT22;57425;51.616;6.680;2023-08-01T11:07:28;20.30;80.40
70068;DHT22;57425;51.616;6.680;2023-08-01T11:10:10;20.30;79.80
70068;DHT22;57425;51.616;6.680;2023-08-01T11:12:40;20.30;79.80
70068;DHT22;57425;51.616;6.680;2023-08-01T11:15:08;20.30;80.40
70068;DHT22;57425;51.616;6.680;2023-08-01T11:17:38;20.30;80.10
70068;DHT22;57425;51.616;6.680;2023-08-01T11:20:06;20.30;79.70
70068;DHT22;57425;51.616;6.680;2023-08-01T11:22:32;20.40;79.50
70068;DHT22;57425;51.616;6.680;2023-08-01T11:24:58;20.30;79.40
70068;DHT22;57425;51.616;6.680;2023-08-01T11:27:25;20.40;79.40
70068;DHT22;57425;51.616;6.680;2023-08-01T11:29:51;20.40;79.30
70068;DHT22;57425;51.616;6.680;2023-08-01T11:32:18;20.40;79.20
70068;DHT22;57425;51.616;6.680;2023-08-01T11:34:46;20.40;79.00
70068;DHT22;57425;51.616;6.680;2023-08-01T11:37:18;20.40;79.00
70068;DHT22;57425;51.616;6.680;2023-08-01T11:39:45;20.40;79.00
70068;DHT22;57425;51.616;6.680;2023-08-01T11:42:16;20.40;78.90
70068;DHT22;57425;51.616;6.680;2023-08-01T11:44:43;20.40;78.90
70068;DHT22;57425;51.616;6.680;2023-08-01T11:47:16;20.40;78.90
70068;DHT22;57425;51.616;6.680;2023-08-01T11:49:49;20.50;79.30
70068;DHT22;57425;51.616;6.680;2023-08-01T11:52:25;20.50;78.60
70068;DHT22;57425;51.616;6.680;2023-08-01T11:54:51;20.50;78.70
70068;DHT22;57425;51.616;6.680;2023-08-01T11:57:17;20.50;78.80
70068;DHT22;57425;51.616;6.680;2023-08-01T11:59:53;20.50;78.60
70068;DHT22;57425;51.616;6.680;2023-08-01T12:02:25;20.50;78.50
70068;DHT22;57425;51.616;6.680;2023-08-01T12:04:52;20.50;78.60
70068;DHT22;57425;51.616;6.680;2023-08-01T12:07:19;20.50;78.60
70068;DHT22;57425;51.616;6.680;2023-08-01T12:09:57;20.50;78.40
70068;DHT22;57425;51.616;6.680;2023-08-01T12:12:23;20.60;78.10
70068;DHT22;57425;51.616;6.680;2023-08-01T12:14:49;20.60;78.30
70068;DHT22;57425;51.616;6.680;2023-08-01T12:17:15;20.60;78.10
70068;DHT22;57425;51.616;6.680;2023-08-01T12:19:40;20.60;78.10
70068;DHT22;57425;51.616;6.680;2023-08-01T12:22:06;20.60;78.00
70068;DHT22;57425;51.616;6.680;2023-08-01T12:24:31;20.60;77.60
70068;DHT22;57425;51.616;6.680;2023-08-01T12:26:59;20.70;78.30
70068;DHT22;57425;51.616;6.680;2023-08-01T12:29:24;20.60;77.60
70068;DHT22;57425;51.616;6.680;2023-08-01T12:31:50;20.70;77.70
70068;DHT22;57425;51.616;6.680;2023-08-01T12:34:15;20.70;77.70
70068;DHT22;57425;51.616;6.680;2023-08-01T12:36:41;20.70;77.50
70068;DHT22;57425;51.616;6.680;2023-08-01T12:39:07;20.70;77.20
70068;DHT22;57425;51.616;6.680;2023-08-01T12:41:36;20.70;77.20
70068;DHT22;57425;51.616;6.680;2023-08-01T12:44:02;20.70;77.10
70068;DHT22;57425;51.616;6.680;2023-08-01T12:46:28;20.80;77.10
70068;DHT22;57425;51.616;6.680;2023-08-01T12:48:54;20.80;77.60
70068;DHT22;57425;51.616;6.680;2023-08-01T12:51:19;20.80;76.90
70068;DHT22;57425;51.616;6.680;2023-08-01T12:53:45;20.80;76.90
70068;DHT22;57425;51.616;6.680;2023-08-01T12:56:11;20.80;76.90
70068;DHT22;57425;51.616;6.680;2023-08-01T12:58:36;20.80;76.80
70068;DHT22;57425;51.616;6.680;2023-08-01T13:01:03;20.90;76.70
70068;DHT22;57425;51.616;6.680;2023-08-01T13:03:31;20.90;76.60
70068;DHT22;57425;51.616;6.680;2023-08-01T13:05:57;20.90;76.80
70068;DHT22;57425;51.616;6.680;2023-08-01T13:08:23;20.90;77.00
70068;DHT22;57425;51.616;6.680;2023-08-01T13:10:49;20.90;76.70
70068;DHT22;57425;51.616;6.680;2023-08-01T13:13:16;20.90;77.20
70068;DHT22;57425;51.616;6.680;2023-08-01T13:15:41;21.00;76.50
70068;DHT22;57425;51.616;6.680;2023-08-01T13:18:07;21.00;76.70
70068;DHT22;57425;51.616;6.680;2023-08-01T13:20:33;21.00;76.70
70068;DHT22;57425;51.616;6.680;2023-08-01T13:22:58;21.00;76.50
70068;DHT22;57425;51.616;6.680;2023-08-01T13:25:24;21.00;76.60
70068;DHT22;57425;51.616;6.680;2023-08-01T13:27:50;21.00;76.50
70068;DHT22;57425;51.616;6.680;2023-08-01T13:30:15;21.10;76.50
70068;DHT22;57425;51.616;6.680;2023-08-01T13:32:43;21.00;77.00
70068;DHT22;57425;51.616;6.680;2023-08-01T13:35:10;21.10;75.80
70068;DHT22;57425;51.616;6.680;2023-08-01T13:37:35;21.10;76.20
70068;DHT22;57425;51.616;6.680;2023-08-01T13:40:01;21.10;75.90
70068;DHT22;57425;51.616;6.680;2023-08-01T13:42:27;21.10;75.70
70068;DHT22;57425;51.616;6.680;2023-08-01T13:44:56;21.10;75.50
70068;DHT22;57425;51.616;6.680;2023-08-01T13:47:22;21.20;75.60
70068;DHT22;57425;51.616;6.680;2023-08-01T13:49:48;21.10;75.10
70068;DHT22;57425;51.616;6.680;2023-08-01T13:52:13;21.20;74.70
70068;DHT22;57425;51.616;6.680;2023-08-01T13:54:39;21.20;74.60
70068;DHT22;57425;51.616;6.680;2023-08-01T13:57:05;21.20;74.30
70068;DHT22;57425;51.616;6.680;2023-08-01T13:59:31;21.20;74.50
70068;DHT22;57425;51.616;6.680;2023-08-01T14:01:57;21.30;74.70
70068;DHT22;57425;51.616;6.680;2023-08-01T14:04:22;21.30;74.50
70068;DHT22;57425;51.616;6.680;2023-08-01T14:06:48;21.30;73.90
70068;DHT22;57425;51.616;6.680;2023-08-01T14:09:14;21.30;74.50
70068;DHT22;57425;51.616;6.680;2023-08-01T14:11:40;21.30;74.60
70068;DHT22;57425;51.616;6.680;2023-08-01T14:14:05;21.30;74.50
70068;DHT22;57425;51.616;6.680;2023-08-01T14:16:31;21.30;74.40
70068;DHT22;57425;51.616;6.680;2023-08-01T14:18:58;21.30;74.50
70068;DHT22;57425;51.616;6.680;2023-08-01T14:21:23;21.40;74.60
70068;DHT22;57425;51.616;6.680;2023-08-01T14:23:49;21.40;74.90
70068;DHT22;57425;51.616;6.680;2023-08-01T14:26:15;21.40;75.00
70068;DHT22;57425;51.616;6.680;2023-08-01T14:28:40;21.40;74.30
70068;DHT22;57425;51.616;6.680;2023-08-01T14:31:06;21.40;74.60
70068;DHT22;57425;51.616;6.680;2023-08-01T14:33:33;21.40;74.20
70068;DHT22;57425;51.616;6.680;2023-08-01T14:35:59;21.40;74.20
70068;DHT22;57425;51.616;6.680;2023-08-01T14:38:25;21.40;73.90
70068;DHT22;57425;51.616;6.680;2023-08-01T14:40:52;21.40;73.80
70068;DHT22;57425;51.616;6.680;2023-08-01T14:43:18;21.40;74.00
70068;DHT22;57425;51.616;6.680;2023-08-01T14:45:44;21.50;73.90
70068;DHT22;57425;51.616;6.680;2023-08-01T14:48:09;21.50;74.10
70068;DHT22;57425;51.616;6.680;2023-08-01T14:50:35;21.50;74.90
70068;DHT22;57425;51.616;6.680;2023-08-01T14:53:02;21.50;75.10
70068;DHT22;57425;51.616;6.680;2023-08-01T14:55:28;21.50;74.30
70068;DHT22;57425;51.616;6.680;2023-08-01T14:57:54;21.50;74.30
70068;DHT22;57425;51.616;6.680;2023-08-01T15:00:20;21.50;74.10
70068;DHT22;57425;51.616;6.680;2023-08-01T15:02:46;21.60;74.40
70068;DHT22;57425;51.616;6.680;2023-08-01T15:05:13;21.60;74.10
70068;DHT22;57425;51.616;6.680;2023-08-01T15:07:39;21.60;73.50
70068;DHT22;57425;51.616;6.680;2023-08-01T15:10:04;21.60;73.60
70068;DHT22;57425;51.616;6.680;2023-08-01T15:12:30;21.60;73.30
70068;DHT22;57425;51.616;6.680;2023-08-01T15:14:56;21.60;73.70
70068;DHT22;57425;51.616;6.680;2023-08-01T15:17:22;21.60;73.50
70068;DHT22;57425;51.616;6.680;2023-08-01T15:19:48;21.60;73.60
70068;DHT22;57425;51.616;6.680;2023-08-01T15:22:15;21.60;73.70
70068;DHT22;57425;51.616;6.680;2023-08-01T15:24:41;21.60;73.60
70068;DHT22;57425;51.616;6.680;2023-08-01T15:27:07;21.70;74.00
70068;DHT22;57425;51.616;6.680;2023-08-01T15:29:33;21.70;73.90
70068;DHT22;57425;51.616;6.680;2023-08-01T15:31:58;21.70;73.60